createdAt,value
2022-08-09T00:00:01.000Z,3.22
2022-08-09T00:02:32.705Z,4.80
2022-08-09T00:06:11.076Z,4.07
2022-08-09T00:07:47.722Z,4.60
2022-08-09T00:10:20.988Z,4.90
2022-08-09T00:12:51.699Z,5.13
2022-08-09T00:15:26.731Z,4.63
2022-08-09T00:18:11.132Z,3.90
2022-08-09T00:20:42.626Z,4.45
2022-08-09T00:23:55.927Z,4.50
2022-08-09T00:26:05.785Z,3.70
2022-08-09T00:28:34.722Z,4.95
2022-08-09T00:31:50.397Z,4.45
2022-08-09T00:33:51.973Z,4.50
2022-08-09T00:36:20.275Z,5.03
2022-08-09T00:38:50.728Z,3.22
2022-08-09T00:44:09.869Z,4.03
2022-08-09T00:44:20.173Z,3.50
2022-08-09T00:47:04.718Z,4.10
2022-08-09T00:49:32.984Z,4.45
2022-08-09T00:52:02.070Z,4.90
2022-08-09T00:54:35.862Z,4.38
2022-08-09T00:57:10.122Z,3.50
2022-08-09T00:59:47.208Z,5.20
2022-08-09T01:02:23.190Z,3.80
2022-08-09T01:05:14.219Z,4.47
2022-08-09T01:08:01.783Z,2.80
2022-08-09T01:10:41.540Z,3.28
2022-08-09T01:13:22.394Z,5.80
2022-08-09T01:15:52.923Z,6.30
2022-08-09T01:18:30.223Z,4.68
2022-08-09T01:20:57.994Z,3.92
2022-08-09T01:24:01.699Z,5.47
2022-08-09T01:26:56.135Z,4.43
2022-08-09T01:29:55.107Z,3.70
2022-08-09T01:32:45.936Z,3.40
2022-08-09T01:35:37.862Z,3.80
2022-08-09T01:38:15.395Z,4.32
2022-08-09T01:40:52.996Z,5.40
2022-08-09T01:43:50.290Z,3.40
2022-08-09T01:46:26.987Z,3.20
2022-08-09T01:49:00.296Z,4.80
2022-08-09T01:51:39.199Z,4.25
2022-08-09T01:54:10.816Z,5.25
2022-08-09T01:56:40.607Z,4.05
2022-08-09T01:59:11.158Z,4.95
2022-08-09T02:01:59.087Z,5.28
2022-08-09T02:04:31.603Z,4.35
2022-08-09T02:07:18.384Z,5.40
2022-08-09T02:10:06.848Z,5.70
2022-08-09T02:12:35.418Z,2.60
2022-08-09T02:15:06.310Z,3.40
2022-08-09T02:18:01.138Z,3.17
2022-08-09T02:20:32.543Z,3.90
2022-08-09T02:23:08.969Z,4.18
2022-08-09T02:25:42.707Z,4.50
2022-08-09T02:28:21.377Z,5.05
2022-08-09T02:30:58.177Z,3.05
2022-08-09T02:33:58.298Z,3.53
2022-08-09T02:36:18.392Z,4.70
2022-08-09T02:38:52.767Z,3.90
2022-08-09T02:41:34.774Z,4.10
2022-08-09T02:44:13.811Z,2.90
2022-08-09T02:46:58.118Z,3.20
2022-08-09T02:49:27.248Z,3.55
2022-08-09T02:52:07.822Z,3.17
2022-08-09T02:54:36.764Z,4.13
2022-08-09T02:57:24.979Z,3.67
2022-08-09T03:00:21.388Z,4.15
2022-08-09T03:02:58.411Z,3.42
2022-08-09T03:05:27.999Z,4.00
2022-08-09T03:07:55.851Z,3.97
2022-08-09T03:10:24.900Z,4.70
2022-08-09T03:12:53.142Z,3.78
2022-08-09T03:15:22.898Z,4.40
2022-08-09T03:17:53.806Z,3.40
2022-08-09T03:20:26.305Z,3.85
2022-08-09T03:22:58.440Z,3.53
2022-08-09T03:25:58.133Z,3.88
2022-08-09T03:28:30.474Z,4.25
2022-08-09T03:30:57.999Z,5.10
2022-08-09T03:33:26.689Z,3.58
2022-08-09T03:36:16.229Z,3.20
2022-08-09T03:38:44.760Z,5.40
2022-08-09T03:41:16.712Z,3.35
2022-08-09T03:43:51.778Z,5.60
2022-08-09T03:46:34.279Z,5.30
2022-08-09T03:49:03.677Z,5.67
2022-08-09T03:51:56.331Z,4.40
2022-08-09T03:54:19.489Z,4.65
2022-08-09T03:56:58.177Z,4.50
2022-08-09T03:59:32.963Z,4.45
2022-08-09T04:02:12.619Z,4.82
2022-08-09T04:04:45.581Z,5.00
2022-08-09T04:07:13.187Z,4.82
2022-08-09T04:09:47.883Z,3.72
2022-08-09T04:12:37.374Z,5.63
2022-08-09T04:15:11.549Z,4.28
2022-08-09T04:17:44.702Z,3.83
2022-08-09T04:20:15.515Z,4.72
2022-08-09T04:22:44.343Z,5.10
2022-08-09T04:25:12.921Z,4.22
2022-08-09T04:27:42.883Z,4.95
2022-08-09T04:30:18.023Z,4.38
2022-08-09T04:32:47.807Z,4.38
2022-08-09T04:35:15.335Z,4.40
2022-08-09T04:37:46.182Z,3.47
2022-08-09T04:40:28.517Z,4.63
2022-08-09T04:43:01.248Z,4.00
2022-08-09T04:45:30.587Z,5.57
2022-08-09T04:48:02.120Z,4.30
2022-08-09T04:50:34.992Z,4.65
2022-08-09T04:53:13.503Z,4.00
2022-08-09T04:55:58.281Z,4.60
2022-08-09T04:58:27.101Z,4.80
2022-08-09T05:00:54.523Z,6.30
2022-08-09T05:03:42.901Z,6.30
2022-08-09T05:06:10.059Z,6.53
2022-08-09T05:08:38.341Z,4.85
2022-08-09T05:11:06.946Z,5.85
2022-08-09T05:13:38.762Z,7.65
2022-08-09T05:16:10.099Z,5.85
2022-08-09T05:18:57.214Z,6.70
2022-08-09T05:21:29.997Z,5.95
2022-08-09T05:24:01.337Z,7.60
2022-08-09T05:26:36.890Z,6.10
2022-08-09T05:29:17.597Z,6.65
2022-08-09T05:31:50.459Z,5.55
2022-08-09T05:34:30.173Z,7.60
2022-08-09T05:36:58.455Z,6.75
2022-08-09T05:39:35.738Z,6.80
2022-08-09T05:42:04.647Z,5.18
2022-08-09T05:44:34.975Z,7.13
2022-08-09T05:47:05.589Z,8.00
2022-08-09T05:50:24.283Z,7.00
2022-08-09T05:52:20.046Z,7.50
2022-08-09T05:54:49.107Z,8.13
2022-08-09T05:57:17.465Z,8.05
2022-08-09T05:59:46.215Z,7.65
2022-08-09T06:02:17.027Z,10.52
2022-08-09T06:04:46.069Z,9.38
2022-08-09T06:07:21.300Z,8.25
2022-08-09T06:10:01.735Z,8.57
2022-08-09T06:12:30.030Z,8.77
2022-08-09T06:15:01.139Z,8.20
2022-08-09T06:17:39.860Z,7.45
2022-08-09T06:20:07.993Z,7.57
2022-08-09T06:22:35.380Z,7.43
2022-08-09T06:25:02.921Z,9.70
2022-08-09T06:27:43.138Z,7.68
2022-08-09T06:30:16.976Z,7.90
2022-08-09T06:32:59.712Z,7.40
2022-08-09T06:35:35.882Z,7.90
2022-08-09T06:38:15.830Z,7.20
2022-08-09T06:40:43.146Z,7.17
2022-08-09T06:43:10.308Z,6.97
2022-08-09T06:46:07.003Z,5.82
2022-08-09T06:48:26.040Z,7.63
2022-08-09T06:50:57.018Z,6.13
2022-08-09T06:53:25.200Z,6.47
2022-08-09T06:55:53.211Z,5.70
2022-08-09T07:00:46.445Z,4.82
2022-08-09T07:01:07.852Z,4.72
2022-08-09T07:03:39.722Z,7.65
2022-08-09T07:06:19.593Z,7.43
2022-08-09T07:08:46.856Z,4.55
2022-08-09T07:11:17.665Z,4.60
2022-08-09T07:14:04.930Z,6.97
2022-08-09T07:16:42.708Z,4.43
2022-08-09T07:19:18.749Z,4.70
2022-08-09T07:21:57.259Z,4.50
2022-08-09T07:24:32.711Z,4.35
2022-08-09T07:27:21.061Z,4.60
2022-08-09T07:29:58.407Z,6.40
2022-08-09T07:32:33.223Z,5.45
2022-08-09T07:35:10.189Z,3.33
2022-08-09T07:37:43.236Z,4.97
2022-08-09T07:40:17.674Z,4.55
2022-08-09T07:43:16.822Z,3.65
2022-08-09T07:45:43.769Z,3.40
2022-08-09T07:48:25.481Z,3.58
2022-08-09T07:51:09.370Z,3.55
2022-08-09T07:54:04.143Z,3.22
2022-08-09T07:56:33.736Z,4.50
2022-08-09T07:59:00.685Z,4.03
2022-08-09T08:01:34.078Z,3.53
2022-08-09T08:04:02.541Z,5.00
2022-08-09T08:06:31.878Z,3.05
2022-08-09T08:09:05.104Z,3.40
2022-08-09T08:12:09.369Z,3.40
2022-08-09T08:14:24.271Z,3.70
2022-08-09T08:17:00.926Z,3.10
2022-08-09T08:19:35.027Z,4.75
2022-08-09T08:22:02.313Z,3.10
2022-08-09T08:24:35.270Z,3.10
2022-08-09T08:27:16.911Z,3.33
2022-08-09T08:29:50.094Z,4.47
2022-08-09T08:32:28.790Z,3.40
2022-08-09T08:34:58.516Z,3.00
2022-08-09T08:37:41.095Z,3.25
2022-08-09T08:40:14.329Z,5.60
2022-08-09T08:42:43.270Z,3.80
2022-08-09T08:45:16.663Z,3.67
2022-08-09T08:47:46.091Z,3.28
2022-08-09T08:50:18.302Z,3.30
2022-08-09T08:52:58.378Z,3.40
2022-08-09T08:55:27.955Z,3.47
2022-08-09T08:57:58.548Z,5.00
2022-08-09T09:00:34.654Z,2.55
2022-08-09T09:03:11.695Z,3.08
2022-08-09T09:06:00.875Z,4.47
2022-08-09T09:08:30.296Z,3.40
2022-08-09T09:11:01.552Z,2.55
2022-08-09T09:13:42.139Z,2.85
2022-08-09T09:16:16.106Z,3.25
2022-08-09T09:18:48.062Z,3.20
2022-08-09T09:21:26.043Z,3.42
2022-08-09T09:23:58.103Z,3.10
2022-08-09T09:26:31.690Z,3.90
2022-08-09T09:29:11.174Z,3.77
2022-08-09T09:32:06.561Z,3.80
2022-08-09T09:34:38.035Z,3.30
2022-08-09T09:37:06.684Z,3.50
2022-08-09T09:39:56.891Z,4.35
2022-08-09T09:42:27.689Z,3.80
2022-08-09T09:45:03.265Z,4.53
2022-08-09T09:47:32.927Z,2.60
2022-08-09T09:50:16.834Z,3.60
2022-08-09T09:52:56.362Z,3.20
2022-08-09T09:55:32.573Z,3.00
2022-08-09T09:58:17.376Z,4.78
2022-08-09T10:00:55.182Z,3.00
2022-08-09T10:03:39.686Z,2.70
2022-08-09T10:06:06.875Z,3.35
2022-08-09T10:08:43.199Z,3.38
2022-08-09T10:12:00.307Z,3.65
2022-08-09T10:14:33.005Z,4.73
2022-08-09T10:17:40.721Z,2.75
2022-08-09T10:19:59.142Z,3.15
2022-08-09T10:22:35.428Z,2.10
2022-08-09T10:25:11.778Z,2.63
2022-08-09T10:27:56.671Z,3.40
2022-08-09T10:34:04.229Z,3.72
2022-08-09T10:36:01.220Z,2.70
2022-08-09T10:38:54.895Z,2.23
2022-08-09T10:41:18.662Z,3.40
2022-08-09T10:43:58.660Z,2.88
2022-08-09T10:46:54.512Z,2.80
2022-08-09T10:49:49.767Z,2.92
2022-08-09T10:52:28.013Z,4.15
2022-08-09T10:54:55.809Z,2.58
2022-08-09T10:57:34.237Z,1114.75
2022-08-09T11:00:35.190Z,359.70
2022-08-09T11:03:19.131Z,1261.20
2022-08-09T11:06:15.253Z,1341.70
2022-08-09T11:08:47.524Z,954.65
2022-08-09T11:11:17.628Z,1273.57
2022-08-09T11:13:50.874Z,1364.20
2022-08-09T11:16:37.310Z,1286.80
2022-08-09T11:19:08.057Z,1359.15
2022-08-09T11:21:57.358Z,1193.70
2022-08-09T11:25:03.421Z,404.48
2022-08-09T11:28:05.121Z,124.47
2022-08-09T11:30:32.634Z,208.20
2022-08-09T11:33:19.127Z,851.83
2022-08-09T11:35:50.218Z,1358.10
2022-08-09T11:38:33.936Z,1214.73
2022-08-09T11:41:13.311Z,1356.10
2022-08-09T11:43:43.197Z,1398.00
2022-08-09T11:46:10.598Z,1373.65
2022-08-09T11:48:52.313Z,1361.60
2022-08-09T11:53:02.536Z,1376.30
2022-08-09T11:54:27.754Z,1171.22
2022-08-09T11:58:02.489Z,1223.03
2022-08-09T12:00:33.977Z,1166.37
2022-08-09T12:03:31.772Z,1153.55
2022-08-09T12:05:51.237Z,1295.60
2022-08-09T12:08:21.628Z,1402.33
2022-08-09T12:10:53.644Z,1385.85
2022-08-09T12:14:09.600Z,1394.85
2022-08-09T12:16:38.453Z,1196.53
2022-08-09T12:19:09.308Z,1389.75
2022-08-09T12:21:39.241Z,1325.43
2022-08-09T12:24:24.597Z,1284.00
2022-08-09T12:29:13.892Z,1354.65
2022-08-09T12:29:58.683Z,1142.25
2022-08-09T12:32:31.676Z,1326.80
2022-08-09T12:35:03.028Z,1374.30
2022-08-09T12:37:49.790Z,1409.32
2022-08-09T12:40:18.880Z,1399.80
2022-08-09T12:42:46.507Z,1408.00
2022-08-09T12:45:34.507Z,1410.60
2022-08-09T12:48:31.100Z,1417.53
2022-08-09T12:50:59.348Z,1384.57
2022-08-09T12:53:35.255Z,1410.07
2022-08-09T12:56:39.881Z,1378.45
2022-08-09T12:59:13.976Z,1411.03
2022-08-09T13:01:49.147Z,1402.00
2022-08-09T13:04:35.788Z,1342.53
2022-08-09T13:07:19.658Z,803.20
2022-08-09T13:10:05.723Z,1316.97
2022-08-09T13:12:32.940Z,716.27
2022-08-09T13:15:08.416Z,1346.57
2022-08-09T13:17:58.628Z,1331.80
2022-08-09T13:20:37.871Z,993.83
2022-08-09T13:24:17.427Z,820.95
2022-08-09T13:26:39.069Z,1342.85
2022-08-09T13:29:08.789Z,503.08
2022-08-09T13:32:18.068Z,483.42
2022-08-09T13:34:45.197Z,779.70
2022-08-09T13:37:15.008Z,719.60
2022-08-09T13:41:50.418Z,414.55
2022-08-09T13:42:50.255Z,611.60
2022-08-09T13:45:18.029Z,1111.50
2022-08-09T13:47:49.575Z,954.45
2022-08-09T13:50:31.315Z,1128.77
2022-08-09T13:52:58.855Z,591.05
2022-08-09T13:55:28.748Z,504.58
2022-08-09T13:57:58.479Z,514.03
2022-08-09T14:00:29.147Z,754.40
2022-08-09T14:03:17.094Z,650.58
2022-08-09T14:05:58.426Z,318.95
2022-08-09T14:08:30.704Z,533.42
2022-08-09T14:10:59.639Z,660.33
2022-08-09T14:14:15.539Z,619.30
2022-08-09T14:16:17.404Z,1262.53
2022-08-09T14:18:50.624Z,833.08
2022-08-09T14:21:22.553Z,1255.30
2022-08-09T14:23:55.479Z,907.80
2022-08-09T14:26:31.463Z,901.45
2022-08-09T14:29:08.103Z,764.40
2022-08-09T14:31:53.960Z,785.53
2022-08-09T14:34:31.281Z,742.58
2022-08-09T14:37:06.733Z,817.45
2022-08-09T14:39:45.743Z,1417.00
2022-08-09T14:42:30.357Z,1031.13
2022-08-09T14:46:39.536Z,1147.70
2022-08-09T14:48:00.373Z,1167.70
2022-08-09T14:50:31.717Z,958.83
2022-08-09T14:53:01.186Z,1137.65
2022-08-09T14:55:29.094Z,1176.75
2022-08-09T14:57:59.577Z,662.78
2022-08-09T15:00:27.046Z,734.03
2022-08-09T15:02:58.267Z,787.03
2022-08-09T15:05:26.963Z,423.17
2022-08-09T15:07:56.633Z,443.55
2022-08-09T15:10:28.988Z,590.85
2022-08-09T15:12:59.063Z,453.10
2022-08-09T15:15:28.801Z,531.15
2022-08-09T15:17:56.366Z,777.70
2022-08-09T15:22:01.115Z,809.38
2022-08-09T15:24:02.954Z,1226.40
2022-08-09T15:25:58.415Z,780.47
2022-08-09T15:28:28.524Z,1209.57
2022-08-09T15:31:09.931Z,1393.47
2022-08-09T15:34:16.277Z,1256.85
2022-08-09T15:36:29.391Z,1145.53
2022-08-09T15:39:00.579Z,1350.82
2022-08-09T15:41:31.165Z,1195.97
2022-08-09T15:43:58.864Z,732.95
2022-08-09T15:46:32.351Z,976.10
2022-08-09T15:49:20.707Z,1155.90
2022-08-09T15:52:04.392Z,1246.40
2022-08-09T15:54:44.664Z,1159.85
2022-08-09T15:57:35.603Z,1380.65
2022-08-09T16:00:25.798Z,1268.10
2022-08-09T16:02:54.929Z,1000.90
2022-08-09T16:05:47.841Z,1140.57
2022-08-09T16:08:24.767Z,898.95
2022-08-09T16:11:02.302Z,827.95
2022-08-09T16:14:03.487Z,1303.37
2022-08-09T16:16:18.547Z,1345.57
2022-08-09T16:18:46.451Z,1212.63
2022-08-09T16:21:17.514Z,1193.72
2022-08-09T16:23:55.741Z,1252.93
2022-08-09T16:26:35.601Z,1402.80
2022-08-09T16:29:11.555Z,923.37
2022-08-09T16:32:20.020Z,1111.75
2022-08-09T16:34:53.565Z,1303.60
2022-08-09T16:37:20.173Z,976.28
2022-08-09T16:40:08.862Z,914.03
2022-08-09T16:42:36.167Z,606.03
2022-08-09T16:45:05.234Z,860.38
2022-08-09T16:48:38.091Z,1104.10
2022-08-09T16:50:29.177Z,1254.35
2022-08-09T16:52:57.897Z,788.35
2022-08-09T16:55:24.731Z,414.27
2022-08-09T16:58:10.249Z,599.60
2022-08-09T17:00:42.712Z,874.67
2022-08-09T17:03:21.019Z,715.40
2022-08-09T17:06:08.307Z,868.80
2022-08-09T17:08:58.926Z,876.50
2022-08-09T17:11:40.907Z,800.95
2022-08-09T17:14:25.606Z,1226.40
2022-08-09T17:16:56.380Z,1416.63
2022-08-09T17:19:27.877Z,1295.70
2022-08-09T17:22:14.642Z,1411.90
2022-08-09T17:24:47.473Z,1287.47
2022-08-09T17:27:21.526Z,1386.82
2022-08-09T17:29:48.425Z,1412.13
2022-08-09T17:32:20.453Z,1408.88
2022-08-09T17:35:03.903Z,1255.85
2022-08-09T17:38:02.722Z,1217.45
2022-08-09T17:40:27.055Z,1254.25
2022-08-09T17:42:59.709Z,864.85
2022-08-09T17:46:01.695Z,1377.00
2022-08-09T17:48:29.226Z,1325.82
2022-08-09T17:51:08.818Z,1159.75
2022-08-09T17:53:47.932Z,979.20
2022-08-09T17:56:21.368Z,590.13
2022-08-09T17:58:48.119Z,782.40
2022-08-09T18:01:22.745Z,544.55
2022-08-09T18:03:52.009Z,697.33
2022-08-09T18:06:32.483Z,880.37
2022-08-09T18:09:04.463Z,665.40
2022-08-09T18:11:46.997Z,481.65
2022-08-09T18:14:21.630Z,945.75
2022-08-09T18:16:49.678Z,840.25
2022-08-09T18:20:56.143Z,801.03
2022-08-09T18:22:05.494Z,728.28
2022-08-09T18:24:32.470Z,888.25
2022-08-09T18:27:01.119Z,1149.18
2022-08-09T18:30:39.573Z,1276.90
2022-08-09T18:32:19.090Z,1277.00
2022-08-09T18:34:46.241Z,995.35
2022-08-09T18:37:48.830Z,1303.00
2022-08-09T18:40:02.295Z,1173.07
2022-08-09T18:42:29.697Z,733.97
2022-08-09T18:44:56.956Z,841.58
2022-08-09T18:47:27.599Z,1273.88
2022-08-09T18:49:59.890Z,1086.88
2022-08-09T18:52:35.292Z,256.70
2022-08-09T18:55:03.473Z,1101.68
2022-08-09T18:57:43.113Z,142.88
2022-08-09T19:00:16.697Z,255.03
2022-08-09T19:02:51.208Z,5.55
2022-08-09T19:05:28.813Z,29.70
2022-08-09T19:08:10.595Z,965.08
2022-08-09T19:10:41.100Z,993.92
2022-08-09T19:13:20.665Z,921.08
2022-08-09T19:15:49.832Z,357.13
2022-08-09T19:18:33.384Z,105.53
2022-08-09T19:21:08.884Z,12.20
2022-08-09T19:24:33.078Z,16.05
2022-08-09T19:26:29.420Z,12.03
2022-08-09T19:29:01.631Z,551.80
2022-08-09T19:31:30.518Z,25.27
2022-08-09T19:33:58.068Z,5.53
2022-08-09T19:36:30.768Z,4.90
2022-08-09T19:39:01.228Z,4.90
2022-08-09T19:41:35.596Z,4.97
2022-08-09T19:44:03.581Z,3.28
2022-08-09T19:46:35.267Z,35.45
2022-08-09T19:50:05.109Z,6.60
2022-08-09T19:51:55.692Z,3.25
2022-08-09T19:54:27.259Z,4.15
2022-08-09T19:56:55.428Z,476.95
2022-08-09T19:59:57.329Z,61.47
2022-08-09T20:02:18.121Z,5.55
2022-08-09T20:04:59.188Z,5.05
2022-08-09T20:07:26.237Z,4.65
2022-08-09T20:10:17.637Z,4.10
2022-08-09T20:12:49.060Z,3.90
2022-08-09T20:16:33.304Z,2.90
2022-08-09T20:18:07.403Z,3.42
2022-08-09T20:20:35.718Z,3.63
2022-08-09T20:23:04.678Z,5.03
2022-08-09T20:25:49.544Z,108.97
2022-08-09T20:28:34.425Z,26.67
2022-08-09T20:31:11.058Z,5.57
2022-08-09T20:33:43.836Z,8.90
2022-08-09T20:36:11.568Z,46.55
2022-08-09T20:39:18.848Z,3.53
2022-08-09T20:41:35.123Z,3.88
2022-08-09T20:44:06.902Z,4.65
2022-08-09T20:46:43.253Z,3.58
2022-08-09T20:49:16.109Z,3.10
2022-08-09T20:51:44.156Z,164.75
2022-08-09T20:54:12.624Z,7.60
2022-08-09T20:56:46.970Z,503.42
2022-08-09T20:59:17.180Z,579.85
2022-08-09T21:01:50.303Z,13.70
2022-08-09T21:05:53.041Z,35.78
2022-08-09T21:07:11.360Z,4.20
2022-08-09T21:09:45.124Z,5.30
2022-08-09T21:14:48.233Z,7.78
2022-08-09T21:18:22.980Z,45.17
2022-08-09T21:20:18.007Z,18.30
2022-08-09T21:22:52.698Z,214.02
2022-08-09T21:25:43.730Z,756.88
2022-08-09T21:28:12.084Z,16.55
2022-08-09T21:30:42.908Z,4.68
2022-08-09T21:33:10.161Z,4.65
2022-08-09T21:35:39.458Z,4.88
2022-08-09T21:38:21.019Z,3.35
2022-08-09T21:40:57.774Z,4.57
2022-08-09T21:43:56.775Z,3.58
2022-08-09T21:46:11.332Z,15.48
2022-08-09T21:48:42.751Z,3.63
2022-08-09T21:51:18.106Z,3.40
2022-08-09T21:53:54.649Z,6.60
2022-08-09T21:56:43.314Z,5.10
2022-08-09T21:59:09.553Z,5.93
2022-08-09T22:01:58.568Z,80.00
2022-08-09T22:04:37.569Z,3.15
2022-08-09T22:07:10.379Z,3.40
2022-08-09T22:09:43.611Z,3.78
2022-08-09T22:12:18.644Z,4.30
2022-08-09T22:14:51.343Z,4.32
2022-08-09T22:17:18.204Z,4.00
2022-08-09T22:19:58.692Z,4.72
2022-08-09T22:22:27.510Z,3.60
2022-08-09T22:26:05.279Z,4.60
2022-08-09T22:27:41.169Z,3.42
2022-08-09T22:30:10.580Z,4.80
2022-08-09T22:32:37.813Z,3.33
2022-08-09T22:36:01.343Z,4.07
2022-08-09T22:38:07.216Z,4.90
2022-08-09T22:40:35.259Z,5.47
2022-08-09T22:43:16.174Z,4.00
2022-08-09T22:48:14.814Z,3.77
2022-08-09T22:48:36.947Z,4.00
2022-08-09T22:51:10.721Z,4.15
2022-08-09T22:54:02.509Z,4.15
2022-08-09T22:56:33.986Z,3.30
2022-08-09T22:59:06.037Z,3.58
2022-08-09T23:01:50.003Z,4.20
2022-08-09T23:04:17.302Z,4.70
2022-08-09T23:07:03.120Z,4.13
2022-08-09T23:09:37.780Z,3.60
2022-08-09T23:12:04.858Z,3.40
2022-08-09T23:14:42.432Z,4.10
2022-08-09T23:17:10.565Z,3.37
2022-08-09T23:20:06.567Z,5.20
2022-08-09T23:22:24.506Z,3.47
2022-08-09T23:24:51.511Z,5.40
2022-08-09T23:27:18.306Z,3.15
2022-08-09T23:29:45.907Z,4.70
2022-08-09T23:32:12.995Z,3.30
2022-08-09T23:34:40.018Z,5.70
2022-08-09T23:37:06.968Z,2.90
2022-08-09T23:39:34.036Z,3.90
2022-08-09T23:42:01.001Z,3.92
2022-08-09T23:44:27.992Z,3.77
2022-08-09T23:46:57.715Z,4.50
2022-08-09T23:49:25.625Z,3.97
2022-08-09T23:51:53.444Z,3.65
2022-08-09T23:54:20.994Z,3.10
2022-08-09T23:56:55.884Z,5.93
2022-08-09T23:59:24.669Z,3.60
